Time;durP1;ratioP1;P1;durP2;ratioP2;P2;SDS_P1;SDS_P2;PMS_P1;PMS_P2;Temp;Humidity;BMP_temperature;BMP_pressure;BME280_temperature;BME280_humidity;BME280_pressure;Samples;Min_cycle;Max_cycle;Signal;HPM_P1;HPM_P2
2022/10/16 00:01:20;;;;;;;7.95;5.87;;;;;;;5.91;79.21;98718.64;1776126;80;20994;-55
2022/10/16 00:03:47;;;;;;;8.95;5.85;;;;;;;5.89;78.90;98718.87;1775820;80;20923;-55
2022/10/16 00:06:15;;;;;;;12.33;6.05;;;;;;;5.91;78.63;98723.96;1778855;80;21113;-55
2022/10/16 00:08:41;;;;;;;8.23;5.25;;;;;;;5.90;78.19;98721.82;1781585;80;21392;-56
2022/10/16 00:11:12;;;;;;;8.40;5.78;;;;;;;5.90;77.98;98722.34;1779205;80;20986;-55
2022/10/16 00:13:41;;;;;;;9.53;5.50;;;;;;;5.92;77.73;98721.56;1778795;80;21027;-56
2022/10/16 00:16:08;;;;;;;12.20;6.05;;;;;;;5.91;77.63;98722.08;1786045;79;20946;-56
2022/10/16 00:18:37;;;;;;;9.58;6.00;;;;;;;5.93;77.51;98724.52;1780856;80;20998;-56
2022/10/16 00:21:11;;;;;;;11.65;6.20;;;;;;;5.96;77.22;98721.36;1777034;80;20871;-56
2022/10/16 00:23:38;;;;;;;9.00;5.60;;;;;;;5.97;77.17;98720.32;1777193;80;21086;-55
2022/10/16 00:26:08;;;;;;;9.03;5.92;;;;;;;5.96;77.05;98724.02;1776427;80;21023;-55
2022/10/16 00:28:36;;;;;;;9.65;5.72;;;;;;;5.94;77.05;98723.45;1785694;80;20907;-56
2022/10/16 00:31:05;;;;;;;10.63;5.90;;;;;;;5.93;76.78;98724.00;1780237;80;21433;-56
2022/10/16 00:33:31;;;;;;;8.68;6.10;;;;;;;5.93;76.67;98723.19;1779564;79;21020;-56
2022/10/16 00:36:00;;;;;;;10.85;6.12;;;;;;;5.93;76.52;98724.52;1774321;79;20983;-55
2022/10/16 00:38:26;;;;;;;8.85;6.05;;;;;;;5.91;76.52;98726.08;1749538;80;20946;-56
2022/10/16 00:40:53;;;;;;;12.78;6.37;;;;;;;5.86;76.60;98722.55;1783683;80;21383;-56
2022/10/16 00:43:45;;;;;;;11.50;5.58;;;;;;;5.81;76.76;98722.44;1782723;80;21115;-56
2022/10/16 00:46:39;;;;;;;8.95;6.12;;;;;;;5.76;76.93;98731.13;1748805;80;21040;-54
2022/10/16 00:49:16;;;;;;;8.98;6.30;;;;;;;5.68;77.19;98732.84;1788699;79;20844;-57
2022/10/16 00:51:49;;;;;;;10.05;6.80;;;;;;;5.69;77.34;98736.32;1782807;80;20994;-55
2022/10/16 00:54:26;;;;;;;10.75;6.50;;;;;;;5.66;77.38;98738.13;1751717;80;21012;-56
2022/10/16 00:56:54;;;;;;;10.03;6.53;;;;;;;5.64;77.46;98740.22;1757995;80;21084;-56
2022/10/16 00:59:32;;;;;;;11.12;6.42;;;;;;;5.62;77.46;98740.98;1785951;80;20923;-56
2022/10/16 01:01:58;;;;;;;9.75;6.67;;;;;;;5.60;77.47;98740.42;1784072;79;20975;-56
2022/10/16 01:04:26;;;;;;;11.25;6.47;;;;;;;5.57;77.55;98736.91;1773139;80;21490;-56
2022/10/16 01:07:47;;;;;;;13.08;7.20;;;;;;;5.49;77.66;98737.58;1788415;80;20940;-56
2022/10/16 01:10:41;;;;;;;10.38;6.55;;;;;;;5.44;77.80;98736.70;1777194;80;21751;-56
2022/10/16 01:13:13;;;;;;;13.58;6.58;;;;;;;5.38;77.90;98738.45;1784331;79;21443;-56
2022/10/16 01:15:51;;;;;;;10.48;6.10;;;;;;;5.33;78.03;98741.02;1784119;79;21435;-56
2022/10/16 01:18:53;;;;;;;9.70;6.17;;;;;;;5.26;78.23;98736.37;1789207;80;21038;-56
2022/10/16 01:21:27;;;;;;;9.78;6.42;;;;;;;5.21;78.38;98737.60;1778527;80;21015;-56
2022/10/16 01:24:05;;;;;;;8.63;6.53;;;;;;;5.19;78.67;98737.03;1785231;80;21408;-56
2022/10/16 01:27:05;;;;;;;9.85;6.22;;;;;;;5.19;78.75;98737.03;1782919;79;20876;-56
2022/10/16 01:29:57;;;;;;;9.63;6.28;;;;;;;5.19;78.86;98728.25;1784206;80;20848;-55
2022/10/16 01:32:35;;;;;;;9.65;6.62;;;;;;;5.18;78.98;98738.61;1775744;80;21030;-56
2022/10/16 01:35:21;;;;;;;12.13;6.90;;;;;;;5.15;79.02;98737.23;1787881;79;20904;-56
2022/10/16 01:38:03;;;;;;;9.20;6.25;;;;;;;5.12;79.10;98736.37;1762537;80;21125;-56
2022/10/16 01:40:32;;;;;;;11.50;6.45;;;;;;;5.09;79.24;98739.49;1763480;79;20936;-56
2022/10/16 01:43:05;;;;;;;8.45;5.72;;;;;;;5.05;79.33;98739.69;1778519;80;21510;-56
2022/10/16 01:45:32;;;;;;;8.33;5.70;;;;;;;5.02;79.41;98740.16;1783256;80;20928;-56
2022/10/16 01:47:59;;;;;;;12.18;6.22;;;;;;;5.00;79.59;98740.91;1749027;80;21544;-55
2022/10/16 01:50:26;;;;;;;8.65;6.25;;;;;;;5.02;79.80;98741.48;1754754;80;21342;-56
2022/10/16 01:52:53;;;;;;;9.23;6.45;;;;;;;5.03;79.91;98739.64;1780066;79;20884;-56
2022/10/16 01:55:24;;;;;;;8.60;6.22;;;;;;;5.05;79.97;98746.84;1757583;80;21482;-55
2022/10/16 01:57:51;;;;;;;11.38;6.53;;;;;;;5.07;79.96;98753.53;1777051;80;21010;-56
2022/10/16 02:00:19;;;;;;;13.10;6.65;;;;;;;5.09;79.83;98755.42;1789332;80;20963;-56
2022/10/16 02:02:48;;;;;;;12.15;7.15;;;;;;;5.07;79.80;98749.55;1777266;80;21114;-56
2022/10/16 02:05:40;;;;;;;11.48;6.47;;;;;;;5.04;79.72;98755.87;1785867;79;20924;-56
2022/10/16 02:08:08;;;;;;;10.03;6.28;;;;;;;4.96;79.79;98751.73;1751416;80;21505;-54
2022/10/16 02:10:36;;;;;;;8.55;6.45;;;;;;;4.89;79.91;98757.70;1777856;80;21003;-55
2022/10/16 02:13:25;;;;;;;9.55;6.17;;;;;;;4.86;80.02;98756.83;1788856;80;21422;-55
2022/10/16 02:15:53;;;;;;;11.03;6.10;;;;;;;4.83;80.14;98758.10;1713693;80;20904;-55
2022/10/16 02:18:22;;;;;;;15.63;5.70;;;;;;;4.79;80.32;98765.44;1786368;80;20999;-55
2022/10/16 02:20:55;;;;;;;10.60;6.67;;;;;;;4.76;80.44;98763.25;1786086;80;20964;-55
2022/10/16 02:23:56;;;;;;;9.65;5.92;;;;;;;4.76;80.52;98765.91;1778080;79;20936;-55
2022/10/16 02:29:14;;;;;;;8.93;6.03;;;;;;;4.78;80.55;98769.16;1782630;80;20909;-56
2022/10/16 02:31:43;;;;;;;9.08;5.75;;;;;;;4.78;80.52;98769.16;1778362;80;21550;-56
2022/10/16 02:34:11;;;;;;;9.00;5.95;;;;;;;4.79;80.45;98778.20;1783856;80;20971;-56
2022/10/16 02:36:39;;;;;;;8.55;5.60;;;;;;;4.81;80.34;98779.28;1780425;79;20987;-56
2022/10/16 02:39:06;;;;;;;8.53;5.17;;;;;;;4.83;80.20;98782.50;1751794;80;21039;-56
2022/10/16 02:41:33;;;;;;;8.50;5.83;;;;;;;4.87;80.17;98777.04;1786740;80;21777;-56
2022/10/16 02:44:00;;;;;;;10.60;5.70;;;;;;;4.89;80.16;98783.43;1781246;80;20936;-56
2022/10/16 02:46:27;;;;;;;12.63;6.10;;;;;;;4.91;80.12;98787.47;1775683;80;20837;-55
2022/10/16 02:48:54;;;;;;;12.55;5.47;;;;;;;4.91;80.06;98787.47;1785534;79;21387;-56
2022/10/16 02:51:21;;;;;;;8.85;5.62;;;;;;;4.93;79.93;98790.69;1785913;79;20939;-55
2022/10/16 02:53:47;;;;;;;13.53;6.33;;;;;;;4.90;79.85;98785.05;1778578;80;21960;-56
2022/10/16 02:56:14;;;;;;;14.18;6.33;;;;;;;4.84;79.85;98784.95;1778230;80;20955;-56
2022/10/16 02:58:41;;;;;;;10.10;6.62;;;;;;;4.78;79.87;98785.86;1780908;80;20963;-56
2022/10/16 03:01:08;;;;;;;8.90;5.17;;;;;;;4.74;80.03;98790.55;1788908;79;21067;-56
2022/10/16 03:03:34;;;;;;;8.73;5.75;;;;;;;4.70;80.16;98797.37;1748734;81;20943;-56
2022/10/16 03:06:01;;;;;;;7.53;5.53;;;;;;;4.69;80.34;98793.91;1778717;80;21422;-56
2022/10/16 03:08:27;;;;;;;8.78;5.42;;;;;;;4.70;80.40;98798.70;1753345;80;20923;-56
2022/10/16 03:10:55;;;;;;;8.75;5.85;;;;;;;4.69;80.52;98792.58;1750964;80;20852;-56
2022/10/16 03:13:22;;;;;;;7.97;5.67;;;;;;;4.70;80.49;98804.00;1780966;79;21015;-56
2022/10/16 03:15:49;;;;;;;12.30;6.65;;;;;;;4.70;80.54;98806.66;1781913;79;20999;-56
2022/10/16 03:18:17;;;;;;;9.05;6.00;;;;;;;4.67;80.55;98803.13;1775911;80;21114;-56
2022/10/16 03:20:44;;;;;;;9.70;5.92;;;;;;;4.66;80.57;98802.86;1778740;79;20880;-56
2022/10/16 03:23:11;;;;;;;10.03;5.97;;;;;;;4.65;80.64;98807.88;1776445;80;21450;-56
2022/10/16 03:25:38;;;;;;;9.25;5.53;;;;;;;4.61;80.61;98804.08;1776872;80;20985;-56
2022/10/16 03:28:05;;;;;;;7.45;5.58;;;;;;;4.59;80.69;98811.47;1789076;79;21406;-56
2022/10/16 03:30:31;;;;;;;11.57;6.37;;;;;;;4.55;80.84;98813.76;1786221;79;21107;-56
2022/10/16 03:32:58;;;;;;;10.85;5.85;;;;;;;4.50;80.96;98812.31;1777110;80;21054;-56
2022/10/16 03:35:24;;;;;;;8.15;5.90;;;;;;;4.50;81.07;98814.19;1786221;80;20994;-56
2022/10/16 03:37:51;;;;;;;9.30;5.87;;;;;;;4.51;81.14;98809.15;1780944;80;21022;-56
2022/10/16 03:40:18;;;;;;;9.88;5.80;;;;;;;4.51;81.18;98807.82;1786091;79;21070;-56
2022/10/16 03:42:45;;;;;;;8.58;5.78;;;;;;;4.50;81.23;98814.19;1780855;80;21129;-56
2022/10/16 03:45:11;;;;;;;9.45;6.33;;;;;;;4.50;81.30;98812.86;1778625;80;21380;-56
2022/10/16 03:47:40;;;;;;;9.05;6.00;;;;;;;4.50;81.26;98811.53;1785093;80;20943;-56
2022/10/16 03:50:07;;;;;;;10.10;5.08;;;;;;;4.49;81.28;98815.20;1786134;79;20860;-56
2022/10/16 03:52:35;;;;;;;8.63;5.90;;;;;;;4.47;81.35;98815.96;1777315;80;20896;-56
2022/10/16 03:55:01;;;;;;;9.83;6.47;;;;;;;4.48;81.46;98820.21;1782400;80;21111;-56
2022/10/16 03:57:34;;;;;;;8.68;6.05;;;;;;;4.50;81.53;98818.16;1780588;80;21565;-55
2022/10/16 04:00:01;;;;;;;10.98;6.35;;;;;;;4.48;81.58;98825.52;1786581;79;20895;-55
2022/10/16 04:02:27;;;;;;;13.20;6.50;;;;;;;4.44;81.66;98825.70;1778270;80;20947;-55
2022/10/16 04:04:54;;;;;;;13.03;6.37;;;;;;;4.41;81.70;98823.50;1778937;80;20919;-55
2022/10/16 04:07:21;;;;;;;10.15;6.55;;;;;;;4.38;81.80;98826.63;1786852;80;21100;-55
2022/10/16 04:09:48;;;;;;;9.65;6.58;;;;;;;4.33;81.97;98832.63;1777647;80;20892;-55
2022/10/16 04:12:16;;;;;;;11.53;6.05;;;;;;;4.33;82.07;98823.86;1749216;81;20844;-56
2022/10/16 04:14:43;;;;;;;8.18;5.85;;;;;;;4.29;82.17;98822.68;1748145;81;21389;-57
2022/10/16 04:17:12;;;;;;;11.70;6.60;;;;;;;4.26;82.35;98831.12;1751365;80;21010;-57
2022/10/16 04:19:38;;;;;;;8.85;6.55;;;;;;;4.22;82.58;98832.59;1782970;80;21240;-57
2022/10/16 04:22:05;;;;;;;9.30;6.53;;;;;;;4.23;82.72;98835.55;1785919;80;21018;-56
2022/10/16 04:24:33;;;;;;;9.90;6.92;;;;;;;4.23;82.85;98834.22;1786314;80;21069;-57
2022/10/16 04:26:59;;;;;;;11.35;6.62;;;;;;;4.22;82.93;98832.08;1774639;80;21525;-57
2022/10/16 04:29:26;;;;;;;10.98;6.90;;;;;;;4.18;82.97;98824.81;1782767;79;20899;-57
2022/10/16 04:31:52;;;;;;;8.40;6.60;;;;;;;4.12;83.09;98824.69;1777148;80;21229;-57
2022/10/16 04:34:19;;;;;;;12.45;7.08;;;;;;;4.09;83.22;98823.84;1782972;79;20880;-57
2022/10/16 04:36:49;;;;;;;10.78;6.60;;;;;;;4.05;83.33;98821.33;1784726;80;21379;-57
2022/10/16 04:39:16;;;;;;;8.45;6.15;;;;;;;3.97;83.59;98815.05;1752175;80;21023;-56
2022/10/16 04:41:42;;;;;;;11.80;7.08;;;;;;;3.97;83.90;98824.33;1785369;80;20978;-56
2022/10/16 04:44:09;;;;;;;11.50;6.58;;;;;;;3.99;84.05;98822.77;1780781;80;21116;-56
2022/10/16 04:46:36;;;;;;;8.58;6.35;;;;;;;3.98;84.14;98824.60;1777318;80;21002;-56
2022/10/16 04:49:03;;;;;;;15.38;7.15;;;;;;;3.98;84.21;98827.80;1778321;80;21034;-55
2022/10/16 04:51:29;;;;;;;9.43;6.60;;;;;;;3.96;84.34;98829.33;1784223;79;20952;-55
2022/10/16 04:53:56;;;;;;;7.92;5.75;;;;;;;3.97;84.44;98826.98;1782495;79;21029;-56
2022/10/16 04:56:23;;;;;;;12.15;6.33;;;;;;;3.98;84.58;98831.77;1756233;80;22008;-56
2022/10/16 04:58:49;;;;;;;9.55;6.22;;;;;;;4.00;84.64;98830.48;1786738;79;20825;-56
2022/10/16 05:01:16;;;;;;;9.28;6.15;;;;;;;4.02;84.69;98837.72;1778273;80;21403;-55
2022/10/16 05:03:44;;;;;;;10.72;6.58;;;;;;;4.07;84.71;98844.44;1777158;80;21422;-56
2022/10/16 05:06:11;;;;;;;11.75;6.60;;;;;;;4.09;84.69;98847.70;1776591;80;20892;-56
2022/10/16 05:08:37;;;;;;;8.43;6.50;;;;;;;4.10;84.67;98851.95;1778216;80;22026;-56
2022/10/16 05:11:04;;;;;;;9.63;6.33;;;;;;;4.10;84.68;98862.55;1777620;80;20896;-56
2022/10/16 05:13:32;;;;;;;9.60;6.42;;;;;;;4.13;84.63;98863.95;1785998;80;21054;-56
2022/10/16 05:16:00;;;;;;;8.30;5.60;;;;;;;4.12;84.60;98864.45;1777215;80;20959;-57
2022/10/16 05:18:27;;;;;;;10.30;5.85;;;;;;;4.13;84.67;98864.77;1784221;80;21066;-57
2022/10/16 05:20:54;;;;;;;7.28;5.92;;;;;;;4.16;84.68;98862.17;1775777;80;21213;-57
2022/10/16 05:23:21;;;;;;;9.88;6.00;;;;;;;4.18;84.62;98868.56;1784441;80;21521;-57
2022/10/16 05:25:57;;;;;;;7.65;6.17;;;;;;;4.18;84.60;98871.22;1777168;80;20947;-57
2022/10/16 05:28:25;;;;;;;12.98;6.00;;;;;;;4.19;84.71;98866.22;1788794;80;21035;-56
2022/10/16 05:30:52;;;;;;;10.00;6.90;;;;;;;4.22;84.65;98871.05;1782844;80;20978;-57
2022/10/16 05:33:24;;;;;;;10.68;6.35;;;;;;;4.24;84.66;98871.65;1779526;79;21157;-57
2022/10/16 05:35:51;;;;;;;11.75;5.78;;;;;;;4.28;84.69;98875.45;1749519;80;20837;-57
2022/10/16 05:38:19;;;;;;;9.38;5.47;;;;;;;4.33;84.66;98880.37;1749327;80;21041;-57
2022/10/16 05:40:52;;;;;;;9.63;6.05;;;;;;;4.40;84.60;98876.28;1786646;80;20859;-57
2022/10/16 05:43:20;;;;;;;9.10;6.25;;;;;;;4.47;84.56;98876.98;1752631;80;21017;-57
2022/10/16 05:46:04;;;;;;;118.97;47.65;;;;;;;4.55;84.43;98875.30;1751569;80;21134;-57
2022/10/16 05:48:32;;;;;;;47.35;26.40;;;;;;;4.60;84.24;98884.70;1749170;80;21470;-57
2022/10/16 05:51:11;;;;;;;34.20;25.23;;;;;;;4.68;84.03;98893.66;1750956;81;20987;-57
2022/10/16 05:53:36;;;;;;;23.70;16.65;;;;;;;4.69;83.84;98908.53;1750788;80;20943;-57
2022/10/16 05:56:05;;;;;;;66.47;49.50;;;;;;;4.72;83.83;98909.41;1784999;80;21480;-57
2022/10/16 05:58:33;;;;;;;17.05;12.25;;;;;;;4.78;83.86;98913.81;1780857;80;21455;-57
2022/10/16 06:01:04;;;;;;;15.08;8.20;;;;;;;4.86;83.82;98914.77;1749240;80;20939;-57
2022/10/16 06:03:33;;;;;;;12.45;7.83;;;;;;;4.95;83.74;98917.88;1780617;80;20924;-57
2022/10/16 06:06:02;;;;;;;11.10;7.35;;;;;;;5.04;83.67;98920.50;1785939;80;20976;-57
2022/10/16 06:08:29;;;;;;;17.23;9.45;;;;;;;5.12;83.46;98923.59;1737786;80;20950;-56
2022/10/16 06:11:03;;;;;;;19.67;11.40;;;;;;;5.21;83.25;98925.36;1750482;80;21120;-56
2022/10/16 06:13:30;;;;;;;33.15;13.48;;;;;;;5.29;83.09;98932.98;1750107;81;20895;-55
2022/10/16 06:15:59;;;;;;;26.75;10.23;;;;;;;5.37;82.82;98933.42;1751563;80;21011;-57
2022/10/16 06:18:27;;;;;;;38.85;16.27;;;;;;;5.47;82.60;98938.96;1752043;80;20931;-57
2022/10/16 06:20:55;;;;;;;49.50;17.42;;;;;;;5.57;82.29;98948.18;1784247;80;21466;-57
2022/10/16 06:23:22;;;;;;;23.00;10.45;;;;;;;5.67;82.01;98946.55;1748178;81;21125;-57
2022/10/16 06:25:49;;;;;;;19.70;9.28;;;;;;;5.75;81.61;98943.50;1789180;79;21538;-57
2022/10/16 06:28:15;;;;;;;18.42;8.83;;;;;;;5.83;81.40;98942.33;1778531;80;20982;-57
2022/10/16 06:30:46;;;;;;;13.80;9.15;;;;;;;5.89;81.25;98938.74;1787832;80;21455;-56
2022/10/16 06:33:12;;;;;;;14.60;9.28;;;;;;;5.96;81.04;98938.08;1781409;80;21027;-56
2022/10/16 06:35:39;;;;;;;17.80;9.43;;;;;;;6.04;80.76;98943.03;1785919;80;21890;-55
2022/10/16 06:38:06;;;;;;;20.40;8.05;;;;;;;6.11;80.79;98950.34;1748218;80;20864;-57
2022/10/16 06:40:34;;;;;;;12.25;7.12;;;;;;;6.19;80.60;98942.77;1780282;79;20995;-56
2022/10/16 06:43:00;;;;;;;13.20;7.00;;;;;;;6.29;80.51;98938.70;1775725;80;20923;-56
2022/10/16 06:45:28;;;;;;;14.40;6.92;;;;;;;6.40;80.46;98945.30;1779729;80;20960;-57
2022/10/16 06:47:54;;;;;;;11.20;6.97;;;;;;;6.51;80.33;98946.25;1785664;80;21953;-56
2022/10/16 06:50:21;;;;;;;12.93;7.12;;;;;;;6.65;80.11;98948.88;1778238;80;20955;-56
2022/10/16 07:03:18;;;;;;;11.15;7.65;;;;;;;7.33;79.10;98944.58;1788492;79;21027;-57
2022/10/16 07:05:45;;;;;;;15.00;7.95;;;;;;;7.48;79.03;98950.13;1780831;80;20884;-56
2022/10/16 07:08:12;;;;;;;13.22;7.03;;;;;;;7.66;78.74;98953.81;1750652;80;20951;-57
2022/10/16 07:10:38;;;;;;;10.82;6.58;;;;;;;7.83;78.15;98946.56;1784794;80;20971;-56
2022/10/16 07:13:07;;;;;;;11.73;7.58;;;;;;;8.01;77.32;98950.22;1777005;80;21926;-56
2022/10/16 07:15:34;;;;;;;12.07;7.25;;;;;;;8.17;76.39;98947.20;1781920;80;20903;-56
2022/10/16 07:18:00;;;;;;;11.57;7.62;;;;;;;8.31;75.79;98943.63;1776098;80;20928;-57
2022/10/16 07:20:27;;;;;;;16.30;8.63;;;;;;;8.42;75.00;98946.67;1778182;80;20915;-56
2022/10/16 07:22:54;;;;;;;9.23;6.60;;;;;;;8.51;74.69;98947.29;1780629;80;20999;-56
2022/10/16 07:25:20;;;;;;;8.50;6.15;;;;;;;8.62;74.09;98959.66;1784107;79;21164;-56
2022/10/16 07:27:47;;;;;;;11.90;6.25;;;;;;;8.73;74.02;98955.23;1777110;80;21467;-55
2022/10/16 07:30:14;;;;;;;12.68;6.17;;;;;;;8.84;73.42;98961.73;1784148;79;21054;-57
2022/10/16 07:32:41;;;;;;;8.85;6.35;;;;;;;8.92;72.52;98960.45;1789155;79;20900;-56
2022/10/16 07:35:08;;;;;;;11.60;7.53;;;;;;;8.99;72.45;98957.56;1786030;80;20887;-56
2022/10/16 07:37:35;;;;;;;13.20;8.75;;;;;;;9.07;72.51;98960.55;1779390;80;21098;-56
2022/10/16 07:40:02;;;;;;;12.15;6.67;;;;;;;9.20;72.33;98956.64;1776155;80;20865;-56
2022/10/16 07:42:29;;;;;;;11.43;5.60;;;;;;;9.32;71.59;98952.72;1781822;80;21514;-56
2022/10/16 07:44:57;;;;;;;11.55;6.00;;;;;;;9.45;71.23;98948.75;1782588;80;20903;-56
2022/10/16 07:47:24;;;;;;;10.00;5.60;;;;;;;9.57;71.18;98952.03;1777282;80;20923;-56
2022/10/16 07:49:51;;;;;;;9.65;5.37;;;;;;;9.70;70.92;98956.11;1779200;79;21111;-56
2022/10/16 07:52:17;;;;;;;8.70;5.08;;;;;;;9.81;70.37;98955.08;1785939;80;21009;-55
2022/10/16 07:54:44;;;;;;;10.65;5.53;;;;;;;9.89;70.12;98959.94;1777221;80;21082;-56
2022/10/16 07:57:10;;;;;;;9.70;5.50;;;;;;;10.00;70.27;98962.39;1777212;80;20959;-56
2022/10/16 07:59:38;;;;;;;9.43;5.67;;;;;;;10.14;69.75;98965.39;1776196;80;21486;-57
2022/10/16 08:02:05;;;;;;;12.20;5.83;;;;;;;10.25;69.81;98969.70;1787728;80;21237;-57
2022/10/16 08:04:32;;;;;;;7.85;5.20;;;;;;;10.35;68.88;98964.37;1780799;79;21397;-57
2022/10/16 08:06:59;;;;;;;11.85;5.30;;;;;;;10.42;68.59;98972.95;1782748;79;20919;-57
2022/10/16 08:09:27;;;;;;;10.10;5.87;;;;;;;10.52;68.50;98970.30;1782831;80;21408;-57
2022/10/16 08:11:55;;;;;;;9.48;5.50;;;;;;;10.64;68.29;98979.42;1777883;80;21398;-57
2022/10/16 08:14:22;;;;;;;11.08;5.85;;;;;;;10.73;67.60;98983.17;1778177;80;21217;-57
2022/10/16 08:16:48;;;;;;;11.15;5.20;;;;;;;10.79;67.50;98974.87;1785634;80;20900;-55
2022/10/16 08:19:15;;;;;;;11.88;5.85;;;;;;;10.87;67.82;98978.37;1776324;79;21019;-55
2022/10/16 08:21:42;;;;;;;7.97;5.67;;;;;;;11.02;67.90;98987.48;1750569;80;20951;-56
2022/10/16 08:24:09;;;;;;;14.58;5.53;;;;;;;11.20;67.87;98989.60;1750608;80;20884;-56
2022/10/16 08:26:37;;;;;;;11.18;5.22;;;;;;;11.37;67.50;98979.39;1778822;79;20971;-57
2022/10/16 08:29:04;;;;;;;12.45;5.20;;;;;;;11.52;66.45;98982.84;1789181;79;20998;-56
2022/10/16 08:31:30;;;;;;;8.23;4.87;;;;;;;11.65;66.38;98976.11;1778530;80;20855;-56
2022/10/16 08:33:57;;;;;;;12.60;5.08;;;;;;;11.78;65.78;98978.76;1779142;79;20927;-57
2022/10/16 08:36:24;;;;;;;10.18;5.10;;;;;;;11.87;65.05;98981.16;1778788;80;20951;-57
2022/10/16 08:38:50;;;;;;;7.10;4.83;;;;;;;11.93;64.48;98979.52;1775805;79;21111;-56
2022/10/16 08:41:37;;;;;;;8.60;5.10;;;;;;;12.03;64.70;98985.39;1778799;79;20967;-56
2022/10/16 08:44:31;;;;;;;9.05;4.67;;;;;;;12.13;63.40;98978.08;1777064;80;20970;-57
2022/10/16 08:47:12;;;;;;;9.80;5.35;;;;;;;12.20;63.58;98973.20;1781049;79;20903;-56
2022/10/16 08:49:40;;;;;;;6.55;4.78;;;;;;;12.34;63.49;98974.77;1777128;80;20919;-56
2022/10/16 08:52:13;;;;;;;9.58;4.95;;;;;;;12.47;62.93;98976.01;1782716;79;21112;-55
2022/10/16 08:54:46;;;;;;;7.20;4.83;;;;;;;12.54;62.46;98966.56;1777066;80;20880;-55
2022/10/16 08:57:22;;;;;;;7.85;4.40;;;;;;;12.66;62.50;98970.23;1780030;79;20860;-56
2022/10/16 08:59:49;;;;;;;8.15;4.92;;;;;;;12.78;61.50;98973.38;1782614;79;20935;-55
2022/10/16 09:02:34;;;;;;;7.65;4.40;;;;;;;12.84;60.60;98966.87;1749264;80;20982;-56
2022/10/16 09:05:12;;;;;;;7.25;4.72;;;;;;;12.87;60.29;98964.44;1782915;80;21695;-55
2022/10/16 09:08:05;;;;;;;8.43;4.72;;;;;;;12.94;60.76;98972.17;1779067;80;20936;-55
2022/10/16 09:10:51;;;;;;;9.70;4.50;;;;;;;13.02;60.34;98971.02;1778593;80;20982;-56
2022/10/16 09:13:25;;;;;;;6.58;4.62;;;;;;;13.09;59.38;98972.09;1788417;80;20974;-55
2022/10/16 09:16:24;;;;;;;9.63;4.90;;;;;;;13.13;59.06;98967.73;1785976;80;20904;-55
2022/10/16 09:19:13;;;;;;;7.37;5.15;;;;;;;13.18;59.29;98970.38;1776524;80;20840;-56
2022/10/16 09:21:44;;;;;;;8.25;5.12;;;;;;;13.27;57.88;98981.33;1775955;80;38308;-56
2022/10/16 09:24:16;;;;;;;10.53;4.20;;;;;;;13.31;58.18;98975.09;1781324;79;20935;-56
2022/10/16 09:26:43;;;;;;;12.07;4.42;;;;;;;13.40;57.74;98983.37;1788704;80;21085;-57
2022/10/16 09:29:14;;;;;;;7.85;3.90;;;;;;;13.44;57.35;98985.20;1777143;80;20974;-56
2022/10/16 09:31:41;;;;;;;7.97;4.10;;;;;;;13.49;56.67;98985.16;1783805;79;21261;-55
2022/10/16 09:34:34;;;;;;;8.58;4.58;;;;;;;13.54;56.91;98981.61;1783538;79;20872;-56
2022/10/16 09:37:04;;;;;;;6.90;4.10;;;;;;;13.62;57.44;98989.84;1782663;79;20967;-57
2022/10/16 09:39:51;;;;;;;6.53;4.22;;;;;;;13.73;56.85;98987.83;1779921;80;20983;-56
2022/10/16 09:42:28;;;;;;;9.70;4.78;;;;;;;13.83;56.85;98990.95;1780812;79;20927;-56
2022/10/16 09:44:54;;;;;;;8.38;4.70;;;;;;;13.91;56.29;98997.88;1780661;80;21328;-56
2022/10/16 09:47:28;;;;;;;6.80;4.95;;;;;;;13.97;56.00;98986.48;1782652;80;20952;-56
2022/10/16 09:50:03;;;;;;;6.92;4.80;;;;;;;13.99;56.32;98988.37;1785970;79;20941;-56
2022/10/16 09:52:32;;;;;;;5.53;3.85;;;;;;;14.06;56.00;98994.20;1778658;80;21553;-56
2022/10/16 09:55:14;;;;;;;9.93;4.78;;;;;;;14.15;56.07;98988.42;1783647;80;21545;-57
2022/10/16 09:57:53;;;;;;;7.10;3.95;;;;;;;14.23;55.51;98991.27;1788423;80;21707;-56
2022/10/16 10:00:23;;;;;;;6.17;3.80;;;;;;;14.28;54.89;98987.16;1783991;79;20923;-56
2022/10/16 10:02:50;;;;;;;6.53;4.35;;;;;;;14.33;55.29;98976.34;1778445;80;21548;-56
2022/10/16 10:05:26;;;;;;;8.50;4.53;;;;;;;14.41;55.08;98980.83;1785183;80;20923;-57
2022/10/16 10:08:08;;;;;;;8.68;4.28;;;;;;;14.45;55.05;98970.52;1786372;80;21072;-56
2022/10/16 10:10:40;;;;;;;7.00;4.00;;;;;;;14.53;54.71;98973.89;1749596;80;21201;-55
2022/10/16 10:13:20;;;;;;;7.22;4.22;;;;;;;14.62;54.80;98966.77;1787144;80;20931;-56
2022/10/16 10:15:47;;;;;;;7.40;4.50;;;;;;;14.72;54.15;98971.98;1749757;81;20871;-55
2022/10/16 10:18:23;;;;;;;7.72;4.22;;;;;;;14.73;53.77;98976.30;1750645;80;20987;-57
2022/10/16 10:21:01;;;;;;;7.80;4.20;;;;;;;14.71;54.21;98971.75;1783690;80;21376;-56
2022/10/16 10:23:30;;;;;;;4.75;3.67;;;;;;;14.75;53.83;98974.11;1788642;80;21046;-57
2022/10/16 10:26:16;;;;;;;7.37;4.08;;;;;;;14.77;53.13;98975.96;1786054;79;20952;-57
2022/10/16 10:28:54;;;;;;;6.05;4.22;;;;;;;14.79;53.61;98975.69;1752287;80;21108;-57
2022/10/16 10:31:29;;;;;;;7.25;4.00;;;;;;;14.88;53.25;98971.22;1750390;80;21020;-56
2022/10/16 10:34:18;;;;;;;7.83;3.95;;;;;;;14.95;53.22;98970.30;1785736;80;20980;-57
2022/10/16 10:36:50;;;;;;;5.30;3.85;;;;;;;15.02;52.81;98974.77;1785985;79;21916;-57
2022/10/16 10:39:32;;;;;;;14.60;4.50;;;;;;;15.07;52.65;98972.77;1778370;80;21537;-57
2022/10/16 10:42:23;;;;;;;10.28;4.37;;;;;;;15.14;52.92;98979.70;1783758;80;21022;-56
2022/10/16 10:44:59;;;;;;;8.98;4.50;;;;;;;15.19;52.60;98973.64;1777253;80;20967;-57
2022/10/16 10:48:07;;;;;;;6.22;4.17;;;;;;;15.29;53.04;98972.67;1776073;80;20888;-56
2022/10/16 10:50:51;;;;;;;8.03;4.50;;;;;;;15.38;52.55;98965.52;1781742;79;21319;-57
2022/10/16 10:53:46;;;;;;;8.13;4.20;;;;;;;15.47;52.75;98970.50;1783578;79;20975;-57
2022/10/16 10:56:30;;;;;;;10.93;4.30;;;;;;;15.57;51.74;98968.94;1732368;80;20935;-56
2022/10/16 10:59:21;;;;;;;5.53;3.80;;;;;;;15.62;51.33;98973.70;1788488;80;21019;-55
2022/10/16 11:01:58;;;;;;;8.58;4.37;;;;;;;15.62;51.16;98975.06;1776636;80;21435;-57
2022/10/16 11:04:47;;;;;;;7.05;4.10;;;;;;;15.61;51.21;98971.31;1779014;80;20878;-57
2022/10/16 11:07:32;;;;;;;8.00;4.28;;;;;;;15.65;51.11;98972.31;1787502;80;20911;-57
2022/10/16 11:10:07;;;;;;;9.68;5.03;;;;;;;15.71;51.26;98958.95;1784917;80;20950;-55
2022/10/16 11:12:42;;;;;;;7.87;4.60;;;;;;;15.80;51.09;98962.57;1733927;80;20892;-55
2022/10/16 11:15:16;;;;;;;13.08;4.50;;;;;;;15.87;50.82;98962.97;1780452;80;20936;-56
2022/10/16 11:18:16;;;;;;;9.33;4.30;;;;;;;15.95;50.93;98967.66;1778443;79;21125;-56
2022/10/16 11:20:51;;;;;;;6.50;4.28;;;;;;;16.06;51.00;98967.69;1779766;80;21062;-56
2022/10/16 11:23:33;;;;;;;7.22;4.20;;;;;;;16.25;50.76;98962.95;1778215;79;21401;-56
2022/10/16 11:26:04;;;;;;;5.55;4.25;;;;;;;16.43;50.18;98962.03;1786817;79;20908;-56
2022/10/16 11:28:37;;;;;;;8.43;3.95;;;;;;;16.57;49.24;98955.80;1753286;80;21109;-56
2022/10/16 11:31:21;;;;;;;6.85;4.03;;;;;;;16.63;49.34;98954.59;1750638;80;21087;-56
2022/10/16 11:34:08;;;;;;;9.00;4.08;;;;;;;16.66;48.83;98946.65;1782188;80;21352;-56
2022/10/16 11:36:45;;;;;;;11.25;5.33;;;;;;;16.67;48.89;98941.50;1780810;80;20923;-55
2022/10/16 11:39:25;;;;;;;9.23;5.25;;;;;;;16.68;48.74;98940.92;1777244;80;21012;-56
2022/10/16 11:42:03;;;;;;;6.95;4.28;;;;;;;16.72;48.68;98936.52;1776931;79;20908;-56
2022/10/16 11:44:58;;;;;;;12.80;5.10;;;;;;;16.80;48.23;98938.47;1751021;80;21158;-56
2022/10/16 11:47:44;;;;;;;8.38;4.50;;;;;;;16.84;48.32;98938.12;1784628;79;20880;-56
2022/10/16 11:50:38;;;;;;;8.53;4.20;;;;;;;16.93;48.61;98932.21;1781031;80;20933;-56
2022/10/16 11:53:45;;;;;;;9.28;4.47;;;;;;;17.08;48.07;98935.31;1755666;80;26641;-56
2022/10/16 11:56:15;;;;;;;8.48;3.87;;;;;;;17.09;47.88;98938.28;1777446;79;21093;-56
2022/10/16 11:58:53;;;;;;;6.12;3.77;;;;;;;17.13;47.59;98938.45;1786113;80;21029;-56
2022/10/16 12:01:33;;;;;;;7.42;3.77;;;;;;;17.16;47.21;98932.42;1748135;80;20895;-58
2022/10/16 12:04:20;;;;;;;8.20;3.80;;;;;;;17.18;46.90;98928.04;1750058;80;21109;-56
2022/10/16 12:07:08;;;;;;;6.55;3.67;;;;;;;17.16;47.13;98928.36;1747906;80;20989;-56
2022/10/16 12:09:39;;;;;;;8.33;4.05;;;;;;;17.19;46.78;98920.98;1783715;80;20915;-56
2022/10/16 12:12:38;;;;;;;9.08;3.83;;;;;;;17.24;47.05;98915.41;1784631;79;21073;-56